createdAt,value
2022-09-01T00:01:21.236Z,3.78
2022-09-01T00:03:49.208Z,4.38
2022-09-01T00:06:22.487Z,4.38
2022-09-01T00:08:51.648Z,4.30
2022-09-01T00:11:19.829Z,4.35
2022-09-01T00:13:47.623Z,4.25
2022-09-01T00:16:16.613Z,4.53
2022-09-01T00:18:46.076Z,4.68
2022-09-01T00:21:14.476Z,4.30
2022-09-01T00:23:42.195Z,4.35
2022-09-01T00:26:11.295Z,4.50
2022-09-01T00:28:39.197Z,4.22
2022-09-01T00:31:07.978Z,4.35
2022-09-01T00:33:36.090Z,3.90
2022-09-01T00:36:04.150Z,4.00
2022-09-01T00:38:31.945Z,4.30
2022-09-01T00:41:00.688Z,4.00
2022-09-01T00:43:39.765Z,3.85
2022-09-01T00:46:09.053Z,4.10
2022-09-01T00:48:38.073Z,4.10
2022-09-01T00:51:06.152Z,3.90
2022-09-01T00:53:33.814Z,4.07
2022-09-01T00:56:01.505Z,4.65
2022-09-01T00:58:29.184Z,4.38
2022-09-01T01:00:59.022Z,4.68
2022-09-01T01:03:26.866Z,4.40
2022-09-01T01:05:55.444Z,4.07
2022-09-01T01:08:33.823Z,4.70
2022-09-01T01:11:01.983Z,4.60
2022-09-01T01:13:32.090Z,4.95
2022-09-01T01:16:02.012Z,4.72
2022-09-01T01:18:29.941Z,4.45
2022-09-01T01:21:19.624Z,4.40
2022-09-01T01:23:51.004Z,4.57
2022-09-01T01:26:20.004Z,4.70
2022-09-01T01:28:48.773Z,4.68
2022-09-01T01:31:18.406Z,4.80
2022-09-01T01:33:48.762Z,4.60
2022-09-01T01:36:18.027Z,4.10
2022-09-01T01:38:47.549Z,4.07
2022-09-01T01:41:15.849Z,4.32
2022-09-01T01:43:44.913Z,4.03
2022-09-01T01:46:14.499Z,4.68
2022-09-01T01:48:43.073Z,4.40
2022-09-01T01:51:11.960Z,4.40
2022-09-01T01:53:40.067Z,4.80
2022-09-01T01:56:09.475Z,4.50
2022-09-01T01:58:37.173Z,4.28
2022-09-01T02:01:07.037Z,4.55
2022-09-01T02:03:56.098Z,4.60
2022-09-01T02:06:27.116Z,4.30
2022-09-01T02:08:56.767Z,4.25
2022-09-01T02:11:26.081Z,4.32
2022-09-01T02:13:56.291Z,4.55
2022-09-01T02:16:25.643Z,4.32
2022-09-01T02:18:53.951Z,4.30
2022-09-01T02:21:22.770Z,4.53
2022-09-01T02:23:59.610Z,4.55
2022-09-01T02:26:30.115Z,4.82
2022-09-01T02:28:58.234Z,4.53
2022-09-01T02:31:27.870Z,4.45
2022-09-01T02:33:55.866Z,3.88
2022-09-01T02:36:25.277Z,4.40
2022-09-01T02:38:56.419Z,4.30
2022-09-01T02:41:25.225Z,4.25
2022-09-01T02:43:54.100Z,4.10
2022-09-01T02:46:23.565Z,4.18
2022-09-01T02:48:54.566Z,4.20
2022-09-01T02:51:25.135Z,4.20
2022-09-01T02:53:53.292Z,4.05
2022-09-01T02:56:25.073Z,3.88
2022-09-01T02:58:53.395Z,3.72
2022-09-01T03:01:24.654Z,3.75
2022-09-01T03:03:55.532Z,4.25
2022-09-01T03:06:24.287Z,3.67
2022-09-01T03:08:52.621Z,3.78
2022-09-01T03:11:21.702Z,4.43
2022-09-01T03:13:49.410Z,4.63
2022-09-01T03:16:17.225Z,4.63
2022-09-01T03:18:44.953Z,4.43
2022-09-01T03:21:16.296Z,4.45
2022-09-01T03:23:44.166Z,4.07
2022-09-01T03:26:11.964Z,3.72
2022-09-01T03:28:39.647Z,4.05
2022-09-01T03:31:08.289Z,4.30
2022-09-01T03:33:36.509Z,4.68
2022-09-01T03:36:04.627Z,4.00
2022-09-01T03:38:36.469Z,4.57
2022-09-01T03:41:06.213Z,4.10
2022-09-01T03:43:35.802Z,4.30
2022-09-01T03:46:04.112Z,4.63
2022-09-01T03:48:32.262Z,4.22
2022-09-01T03:51:02.724Z,4.35
2022-09-01T03:53:31.321Z,4.20
2022-09-01T03:56:01.528Z,4.32
2022-09-01T03:58:29.157Z,4.20
2022-09-01T04:00:58.334Z,4.13
2022-09-01T04:03:28.995Z,4.25
2022-09-01T04:05:59.194Z,4.45
2022-09-01T04:08:32.433Z,4.13
2022-09-01T04:11:05.233Z,4.18
2022-09-01T04:13:35.455Z,4.13
2022-09-01T04:16:03.664Z,3.90
2022-09-01T04:18:30.617Z,4.22
2022-09-01T04:20:59.394Z,4.35
2022-09-01T04:23:29.889Z,4.45
2022-09-01T04:25:59.751Z,4.30
2022-09-01T04:28:34.362Z,4.40
2022-09-01T04:31:05.816Z,4.30
2022-09-01T04:33:38.114Z,4.80
2022-09-01T04:36:06.405Z,4.53
2022-09-01T04:38:35.671Z,4.47
2022-09-01T04:41:06.498Z,5.25
2022-09-01T04:43:35.504Z,5.15
2022-09-01T04:46:03.410Z,5.07
2022-09-01T04:48:31.659Z,5.25
2022-09-01T04:50:59.428Z,5.45
2022-09-01T04:53:28.688Z,5.00
2022-09-01T04:55:56.623Z,5.35
2022-09-01T04:58:24.553Z,4.80
2022-09-01T05:00:55.827Z,5.25
2022-09-01T05:03:24.226Z,5.05
2022-09-01T05:05:53.945Z,5.40
2022-09-01T05:08:24.193Z,5.57
2022-09-01T05:10:53.673Z,5.53
2022-09-01T05:13:22.681Z,5.45
2022-09-01T05:16:04.085Z,5.50
2022-09-01T05:18:32.141Z,5.40
2022-09-01T05:21:00.710Z,5.10
2022-09-01T05:23:29.845Z,5.05
2022-09-01T05:25:57.581Z,5.30
2022-09-01T05:28:27.055Z,5.13
2022-09-01T05:30:55.158Z,5.35
2022-09-01T05:33:24.792Z,4.70
2022-09-01T05:35:56.883Z,5.28
2022-09-01T05:38:25.600Z,5.15
2022-09-01T05:40:57.802Z,4.70
2022-09-01T05:43:26.906Z,5.30
2022-09-01T05:46:06.458Z,5.22
2022-09-01T05:48:40.221Z,5.25
2022-09-01T05:51:22.357Z,4.90
2022-09-01T05:53:58.887Z,4.55
2022-09-01T05:56:26.767Z,5.10
2022-09-01T06:01:46.847Z,5.03
2022-09-01T06:04:18.647Z,4.55
2022-09-01T06:07:05.802Z,4.50
2022-09-01T06:09:35.314Z,4.78
2022-09-01T06:12:03.535Z,4.20
2022-09-01T06:14:31.175Z,4.55
2022-09-01T06:16:58.968Z,4.32
2022-09-01T06:19:28.573Z,4.28
2022-09-01T06:21:56.866Z,4.80
2022-09-01T06:24:24.817Z,4.97
2022-09-01T06:26:54.817Z,4.65
2022-09-01T06:29:22.681Z,4.40
2022-09-01T06:31:52.894Z,4.68
2022-09-01T06:34:20.826Z,4.60
2022-09-01T06:36:51.732Z,4.35
2022-09-01T06:39:20.665Z,4.55
2022-09-01T06:41:52.694Z,4.43
2022-09-01T06:44:22.374Z,3.97
2022-09-01T06:46:50.761Z,4.05
2022-09-01T06:49:18.578Z,4.05
2022-09-01T06:51:52.678Z,3.85
2022-09-01T06:54:22.821Z,4.05
2022-09-01T06:56:51.733Z,4.20
2022-09-01T06:59:20.559Z,4.43
2022-09-01T07:01:51.439Z,4.30
2022-09-01T07:04:22.245Z,4.18
2022-09-01T07:07:53.315Z,4.30
2022-09-01T07:09:47.712Z,4.22
2022-09-01T07:12:32.048Z,4.20
2022-09-01T07:17:50.189Z,3.90
2022-09-01T07:20:26.782Z,3.85
2022-09-01T07:23:10.488Z,3.53
2022-09-01T07:26:01.247Z,3.75
2022-09-01T07:28:39.902Z,3.47
2022-09-01T07:34:37.648Z,3.63
2022-09-01T07:39:51.209Z,3.47
2022-09-01T07:45:26.832Z,3.53
2022-09-01T07:47:55.090Z,3.65
2022-09-01T07:50:39.839Z,3.95
2022-09-01T07:53:11.071Z,4.00
2022-09-01T07:55:42.206Z,4.38
2022-09-01T07:58:13.341Z,4.15
2022-09-01T08:00:43.226Z,3.88
2022-09-01T08:03:11.192Z,4.05
2022-09-01T08:05:38.910Z,3.90
2022-09-01T08:08:18.534Z,3.97
2022-09-01T08:10:49.026Z,3.85
2022-09-01T08:13:20.010Z,4.20
2022-09-01T08:18:52.839Z,3.60
2022-09-01T08:21:23.496Z,3.75
2022-09-01T08:23:51.600Z,3.70
2022-09-01T08:26:20.276Z,3.63
2022-09-01T08:28:54.974Z,4.00
2022-09-01T08:31:23.793Z,3.70
2022-09-01T08:33:51.638Z,3.97
2022-09-01T08:36:23.658Z,3.50
2022-09-01T08:38:52.682Z,3.60
2022-09-01T08:41:27.777Z,3.75
2022-09-01T08:44:02.829Z,3.50
2022-09-01T08:46:31.472Z,3.63
2022-09-01T08:51:50.434Z,3.63
2022-09-01T08:54:29.425Z,3.72
2022-09-01T08:57:02.003Z,3.97
2022-09-01T08:59:31.057Z,4.00
2022-09-01T09:02:02.876Z,4.18
2022-09-01T09:04:41.285Z,3.90
2022-09-01T09:07:13.642Z,3.95
2022-09-01T09:09:49.305Z,3.88
2022-09-01T09:12:31.408Z,4.07
2022-09-01T09:15:10.954Z,3.67
2022-09-01T09:17:40.792Z,3.85
2022-09-01T09:20:09.322Z,4.18
2022-09-01T09:22:37.105Z,3.40
2022-09-01T09:25:08.382Z,3.67
2022-09-01T09:27:37.201Z,4.07
2022-09-01T09:30:11.140Z,4.10
2022-09-01T09:33:16.019Z,3.80
2022-09-01T09:35:36.481Z,3.80
2022-09-01T09:38:21.757Z,4.03
2022-09-01T09:43:49.258Z,3.90
2022-09-01T09:46:29.111Z,4.00
2022-09-01T09:49:34.579Z,3.70
2022-09-01T09:52:16.437Z,3.90
2022-09-01T09:54:59.846Z,3.90
2022-09-01T09:57:27.456Z,4.47
2022-09-01T10:00:00.690Z,4.57
2022-09-01T10:02:32.795Z,4.63
2022-09-01T10:05:01.530Z,4.30
2022-09-01T10:07:31.796Z,4.22
2022-09-01T10:10:01.446Z,4.40
2022-09-01T10:12:29.220Z,4.57
2022-09-01T10:14:57.716Z,4.32
2022-09-01T10:17:28.715Z,4.20
2022-09-01T10:20:05.580Z,4.03
2022-09-01T10:22:34.025Z,4.20
2022-09-01T10:25:01.866Z,4.05
2022-09-01T10:27:33.635Z,4.07
2022-09-01T10:30:18.075Z,4.18
2022-09-01T10:32:54.273Z,3.83
2022-09-01T10:35:25.933Z,4.10
2022-09-01T10:37:53.674Z,4.43
2022-09-01T10:40:35.985Z,4.38
2022-09-01T10:43:28.634Z,3.88
2022-09-01T10:46:05.135Z,4.00
2022-09-01T10:48:47.903Z,4.28
2022-09-01T10:51:52.100Z,4.03
2022-09-01T10:54:57.318Z,4.28
2022-09-01T10:57:53.110Z,4.18
2022-09-01T11:01:10.587Z,4.10
2022-09-01T11:03:53.368Z,4.07
2022-09-01T11:07:14.628Z,4.32
2022-09-01T11:09:44.704Z,3.92
2022-09-01T11:12:30.833Z,3.88
2022-09-01T11:14:59.224Z,4.10
2022-09-01T11:17:27.107Z,3.88
2022-09-01T11:20:02.814Z,3.55
2022-09-01T11:22:33.112Z,3.90
2022-09-01T11:25:14.844Z,4.00
2022-09-01T11:27:59.848Z,3.58
2022-09-01T11:30:35.123Z,4.00
2022-09-01T11:33:08.694Z,4.03
2022-09-01T11:35:36.447Z,3.75
2022-09-01T11:38:05.693Z,4.50
2022-09-01T11:40:36.214Z,3.80
2022-09-01T11:43:05.921Z,3.85
2022-09-01T11:45:40.419Z,3.72
2022-09-01T11:48:10.417Z,4.40
2022-09-01T11:50:38.814Z,4.15
2022-09-01T11:53:07.869Z,3.95
2022-09-01T11:55:38.296Z,4.13
2022-09-01T11:58:05.928Z,4.05
2022-09-01T12:00:38.206Z,4.20
2022-09-01T12:03:06.698Z,4.32
2022-09-01T12:05:35.948Z,4.03
2022-09-01T12:08:04.422Z,4.40
2022-09-01T12:10:34.143Z,3.88
2022-09-01T12:13:05.148Z,3.70
2022-09-01T12:15:34.937Z,3.88
2022-09-01T12:18:16.969Z,4.22
2022-09-01T12:20:44.769Z,4.25
2022-09-01T12:23:19.077Z,4.57
2022-09-01T12:25:46.890Z,4.47
2022-09-01T12:28:16.801Z,4.30
2022-09-01T12:30:44.742Z,4.03
2022-09-01T12:33:29.358Z,4.28
2022-09-01T12:36:15.302Z,4.25
2022-09-01T12:38:42.998Z,4.28
2022-09-01T12:41:28.931Z,4.72
2022-09-01T12:43:58.209Z,4.05
2022-09-01T12:46:42.918Z,4.30
2022-09-01T12:49:20.333Z,3.95
2022-09-01T12:51:48.736Z,4.03
2022-09-01T12:54:16.446Z,4.25
2022-09-01T12:56:48.973Z,4.18
2022-09-01T12:59:29.923Z,4.05
2022-09-01T13:02:27.975Z,4.45
2022-09-01T13:04:56.341Z,3.90
2022-09-01T13:07:24.289Z,4.22
2022-09-01T13:09:52.037Z,3.90
2022-09-01T13:12:20.967Z,3.65
2022-09-01T13:14:50.742Z,3.70
2022-09-01T13:17:19.905Z,3.85
2022-09-01T13:19:47.602Z,3.63
2022-09-01T13:22:15.441Z,3.88
2022-09-01T13:24:43.125Z,3.80
2022-09-01T13:27:23.093Z,3.55
2022-09-01T13:29:52.501Z,3.53
2022-09-01T13:32:21.655Z,4.10
2022-09-01T13:34:50.630Z,3.58
2022-09-01T13:37:19.407Z,3.90
2022-09-01T13:39:48.113Z,3.70
2022-09-01T13:42:16.302Z,3.58
2022-09-01T13:44:44.444Z,3.67
2022-09-01T13:47:30.010Z,3.20
2022-09-01T13:50:07.014Z,3.70
2022-09-01T13:52:35.188Z,3.60
2022-09-01T13:55:02.958Z,3.53
2022-09-01T13:57:36.168Z,3.38
2022-09-01T14:00:06.257Z,3.50
2022-09-01T14:02:35.376Z,3.53
2022-09-01T14:05:03.199Z,3.33
2022-09-01T14:07:32.383Z,3.30
2022-09-01T14:10:00.268Z,3.55
2022-09-01T14:12:28.034Z,3.28
2022-09-01T14:15:14.254Z,3.33
2022-09-01T14:17:44.954Z,3.58
2022-09-01T14:20:15.107Z,3.38
2022-09-01T14:22:42.780Z,3.50
2022-09-01T14:25:11.001Z,3.42
2022-09-01T14:27:39.051Z,3.40
2022-09-01T14:30:08.455Z,3.40
2022-09-01T14:32:36.357Z,3.38
2022-09-01T14:35:08.134Z,3.67
2022-09-01T14:37:37.928Z,3.13
2022-09-01T14:40:06.865Z,3.15
2022-09-01T14:42:34.586Z,3.08
2022-09-01T14:45:04.817Z,3.20
2022-09-01T14:47:32.500Z,3.40
2022-09-01T14:50:01.253Z,3.35
2022-09-01T14:52:30.682Z,3.55
2022-09-01T14:54:59.499Z,2.92
2022-09-01T14:57:31.208Z,3.22
2022-09-01T15:00:05.782Z,3.30
2022-09-01T15:02:33.927Z,3.22
2022-09-01T15:05:01.618Z,3.40
2022-09-01T15:07:30.629Z,3.70
2022-09-01T15:09:58.867Z,3.30
2022-09-01T15:12:30.781Z,3.55
2022-09-01T15:14:58.845Z,3.03
2022-09-01T15:17:26.502Z,3.22
2022-09-01T15:19:54.154Z,2.97
2022-09-01T15:22:21.885Z,3.20
2022-09-01T15:24:50.845Z,3.63
2022-09-01T15:27:18.970Z,3.38
2022-09-01T15:29:48.885Z,3.60
2022-09-01T15:32:27.630Z,3.65
2022-09-01T15:34:55.826Z,3.40
2022-09-01T15:37:23.529Z,3.25
2022-09-01T15:39:52.675Z,3.53
2022-09-01T15:42:21.763Z,3.20
2022-09-01T15:44:49.449Z,3.25
2022-09-01T15:47:17.139Z,3.38
2022-09-01T15:49:44.835Z,3.47
2022-09-01T15:52:12.697Z,3.33
2022-09-01T15:54:40.389Z,3.40
2022-09-01T15:57:09.550Z,3.08
2022-09-01T15:59:39.955Z,3.15
2022-09-01T16:02:07.745Z,3.42
2022-09-01T16:04:35.382Z,2.90
2022-09-01T16:07:03.015Z,3.20
2022-09-01T16:09:30.764Z,3.08
2022-09-01T16:11:58.570Z,3.00
2022-09-01T16:14:28.311Z,3.17
2022-09-01T16:16:59.716Z,3.20
2022-09-01T16:19:33.457Z,3.20
2022-09-01T16:22:06.897Z,2.95
2022-09-01T16:24:34.834Z,3.00
2022-09-01T16:27:02.523Z,3.00
2022-09-01T16:29:35.000Z,2.80
2022-09-01T16:32:02.897Z,2.90
2022-09-01T16:34:32.013Z,2.70
2022-09-01T16:37:01.884Z,2.80
2022-09-01T16:39:32.530Z,2.80
2022-09-01T16:42:05.961Z,2.95
2022-09-01T16:44:40.813Z,3.00
2022-09-01T16:47:18.348Z,2.92
2022-09-01T16:49:48.684Z,2.90
2022-09-01T16:52:18.721Z,2.97
2022-09-01T16:54:53.402Z,3.05
2022-09-01T16:57:24.034Z,3.00
2022-09-01T16:59:55.694Z,3.20
2022-09-01T17:02:38.424Z,2.63
2022-09-01T17:05:13.098Z,2.70
2022-09-01T17:07:44.344Z,3.13
2022-09-01T17:10:16.545Z,3.00
2022-09-01T17:12:50.544Z,2.63
2022-09-01T17:15:21.939Z,2.97
2022-09-01T17:17:52.188Z,2.80
2022-09-01T17:20:21.157Z,2.67
2022-09-01T17:22:52.036Z,2.67
2022-09-01T17:25:27.285Z,2.97
2022-09-01T17:27:58.075Z,2.45
2022-09-01T17:30:27.321Z,2.90
2022-09-01T17:33:13.074Z,2.72
2022-09-01T17:35:53.124Z,2.70
2022-09-01T17:38:23.422Z,2.88
2022-09-01T17:40:59.998Z,2.40
2022-09-01T17:43:30.730Z,2.42
2022-09-01T17:46:04.484Z,2.75
2022-09-01T17:48:39.598Z,2.70
2022-09-01T17:51:10.626Z,2.78
2022-09-01T17:53:42.461Z,2.40
2022-09-01T17:56:14.525Z,2.20
2022-09-01T17:58:48.047Z,2.33
2022-09-01T18:01:20.858Z,2.13
2022-09-01T18:04:22.111Z,2.38
2022-09-01T18:06:51.861Z,2.42
2022-09-01T18:09:21.490Z,2.30
2022-09-01T18:11:50.914Z,2.30
2022-09-01T18:14:20.767Z,2.10
2022-09-01T18:16:56.359Z,2.38
2022-09-01T18:19:26.050Z,2.25
2022-09-01T18:21:56.061Z,2.40
2022-09-01T18:24:27.607Z,2.40
2022-09-01T18:26:55.377Z,2.28
2022-09-01T18:29:29.522Z,2.08
2022-09-01T18:32:06.463Z,2.55
2022-09-01T18:34:49.008Z,2.10
2022-09-01T18:37:18.441Z,2.13
2022-09-01T18:39:49.862Z,2.17
2022-09-01T18:42:20.644Z,2.03
2022-09-01T18:44:50.961Z,2.40
2022-09-01T18:47:25.265Z,2.33
2022-09-01T18:49:56.804Z,2.20
2022-09-01T18:52:38.550Z,2.10
2022-09-01T18:55:09.732Z,2.20
2022-09-01T18:57:38.636Z,2.30
2022-09-01T19:00:18.158Z,2.00
2022-09-01T19:02:55.949Z,2.20
2022-09-01T19:05:33.278Z,2.08
2022-09-01T19:08:02.916Z,2.03
2022-09-01T19:10:31.864Z,2.22
2022-09-01T19:13:02.128Z,2.20
2022-09-01T19:15:32.722Z,2.10
2022-09-01T19:18:10.273Z,2.47
2022-09-01T19:20:42.796Z,1.88
2022-09-01T19:23:12.510Z,2.05
2022-09-01T19:25:40.837Z,2.17
2022-09-01T19:28:13.240Z,2.20
2022-09-01T19:30:42.931Z,2.30
2022-09-01T19:33:15.786Z,2.10
2022-09-01T19:35:43.997Z,2.22
2022-09-01T19:38:12.131Z,2.08
2022-09-01T19:40:39.859Z,2.30
2022-09-01T19:43:08.586Z,2.17
2022-09-01T19:45:41.925Z,2.40
2022-09-01T19:48:15.811Z,2.40
2022-09-01T19:50:48.313Z,2.08
2022-09-01T19:53:25.769Z,2.20
2022-09-01T19:55:55.462Z,2.05
2022-09-01T19:58:24.851Z,2.22
2022-09-01T20:00:53.710Z,2.20
2022-09-01T20:03:23.473Z,2.10
2022-09-01T20:05:53.978Z,2.05
2022-09-01T20:08:24.151Z,2.25
2022-09-01T20:10:59.869Z,2.30
2022-09-01T20:13:53.633Z,2.17
2022-09-01T20:16:25.565Z,2.17
2022-09-01T20:18:54.676Z,2.10
2022-09-01T20:21:23.686Z,2.45
2022-09-01T20:23:53.754Z,2.20
2022-09-01T20:26:23.283Z,2.15
2022-09-01T20:28:54.834Z,2.25
2022-09-01T20:31:25.131Z,2.00
2022-09-01T20:33:54.815Z,2.03
2022-09-01T20:36:25.842Z,2.08
2022-09-01T20:39:12.403Z,2.08
2022-09-01T20:41:42.868Z,2.00
2022-09-01T20:44:15.579Z,2.40
2022-09-01T20:46:43.306Z,1.98
2022-09-01T20:49:15.137Z,2.00
2022-09-01T20:51:45.711Z,2.17
2022-09-01T20:54:22.145Z,2.15
2022-09-01T20:56:51.920Z,2.20
2022-09-01T20:59:22.993Z,1.98
2022-09-01T21:01:53.595Z,2.20
2022-09-01T21:04:35.825Z,2.03
2022-09-01T21:07:09.681Z,1.90
2022-09-01T21:09:41.288Z,2.15
2022-09-01T21:12:10.279Z,1.88
2022-09-01T21:14:50.386Z,2.00
2022-09-01T21:17:21.791Z,2.17
2022-09-01T21:19:54.579Z,1.98
2022-09-01T21:22:23.760Z,1.88
2022-09-01T21:24:51.469Z,2.13
2022-09-01T21:27:20.154Z,2.28
2022-09-01T21:29:52.668Z,2.17
2022-09-01T21:32:20.425Z,2.10
2022-09-01T21:34:48.561Z,1.90
2022-09-01T21:37:16.299Z,2.00
2022-09-01T21:39:45.416Z,2.10
2022-09-01T21:42:13.353Z,2.00
2022-09-01T21:44:41.136Z,2.10
2022-09-01T21:47:08.815Z,1.88
2022-09-01T21:49:36.514Z,2.15
2022-09-01T21:52:04.469Z,1.88
2022-09-01T21:54:32.366Z,1.90
2022-09-01T21:57:01.463Z,2.05
2022-09-01T21:59:29.334Z,2.00
2022-09-01T22:01:57.129Z,2.30
2022-09-01T22:04:24.829Z,2.10
2022-09-01T22:06:52.538Z,1.70
2022-09-01T22:09:21.715Z,1.98
2022-09-01T22:11:50.122Z,1.98
2022-09-01T22:14:19.231Z,1.90
2022-09-01T22:16:47.114Z,1.92
2022-09-01T22:19:14.854Z,2.20
2022-09-01T22:21:42.691Z,2.20
2022-09-01T22:24:10.638Z,1.98
2022-09-01T22:26:38.460Z,1.60
2022-09-01T22:29:08.912Z,2.05
2022-09-01T22:31:38.962Z,2.00
2022-09-01T22:34:06.914Z,2.08
2022-09-01T22:36:36.188Z,2.13
2022-09-01T22:39:04.224Z,1.98
2022-09-01T22:41:32.550Z,2.00
2022-09-01T22:44:00.375Z,1.95
2022-09-01T22:46:29.302Z,1.83
2022-09-01T22:48:59.062Z,1.70
2022-09-01T22:51:26.894Z,2.05
2022-09-01T22:53:55.073Z,1.75
2022-09-01T22:56:26.978Z,2.10
2022-09-01T22:58:56.205Z,1.83
2022-09-01T23:01:25.014Z,1.70
2022-09-01T23:03:52.839Z,2.20
2022-09-01T23:06:27.642Z,1.80
2022-09-01T23:08:56.341Z,1.90
2022-09-01T23:11:24.251Z,1.90
2022-09-01T23:13:52.018Z,2.10
2022-09-01T23:16:20.408Z,1.90
2022-09-01T23:18:48.302Z,2.00
2022-09-01T23:21:16.974Z,1.83
2022-09-01T23:23:46.126Z,1.90
2022-09-01T23:26:14.099Z,1.80
2022-09-01T23:28:42.190Z,1.92
2022-09-01T23:31:10.313Z,2.10
2022-09-01T23:33:38.075Z,1.92
2022-09-01T23:36:07.441Z,1.90
2022-09-01T23:38:35.301Z,1.90
2022-09-01T23:41:06.310Z,2.10
2022-09-01T23:43:33.979Z,1.80
2022-09-01T23:46:01.727Z,1.90
2022-09-01T23:48:30.095Z,1.90
2022-09-01T23:50:59.283Z,2.08
2022-09-01T23:53:28.168Z,1.98
2022-09-01T23:55:58.577Z,2.10
2022-09-01T23:58:28.014Z,1.90
